Buoy 53524

sailwx.info

Track history (hours):
 
Tides and Currents Weather Stations Pressure Air Temp Water Temp Dewpoint Dewpoint Depression Visibility Wind Speed Wind Dir Waves Ship Positions

Drifting buoy 53524

Last reported at 2014-Dec-18 22:00 UTC. Time now 2014-Dec-18 23:50 UTC.
Position S 15°11' E 087°32'.

Barometer 1011.7 mb
Water temperature 28.0 ° C

Date/timePositionNaut miles runAvg speedWind from/ knotsBaromVisibWave heightAir tempDewpointWater temp
2014-Dec-18 22:00S 15°11' E 087°32'0 0.0 1011.7 28.0
2014-Dec-18 21:00S 15°11' E 087°32'1 1.3 1011.7 28.1
2014-Dec-18 20:00S 15°10' E 087°32'1 0.1 1011.9 28.1
2014-Dec-18 15:00S 15°10' E 087°32'1 0.7 1013.0 28.1
2014-Dec-18 13:00S 15°09' E 087°32'0 0.0 1011.5 28.1
2014-Dec-18 12:00S 15°09' E 087°32'0 0.4 1010.8 28.1
2014-Dec-18 11:00S 15°08' E 087°33'0 0.0 1010.4 28.1
2014-Dec-18 10:00S 15°08' E 087°33'0 0.1 1010.0 28.1
2014-Dec-18 09:00S 15°09' E 087°33'1 0.5 1010.1 28.1
2014-Dec-18 07:00S 15°08' E 087°32'1 0.3 1010.8 28.1
2014-Dec-18 04:00S 15°07' E 087°32'0 0.1 1012.3 28.1
2014-Dec-18 00:00S 15°07' E 087°31'1 0.5 1011.2 28.1
2014-Dec-17 23:00S 15°06' E 087°32'1 0.7 1010.2 28.1
2014-Dec-17 21:00S 15°05' E 087°31'1 1.5 1009.9 28.1
2014-Dec-17 20:00S 15°04' E 087°30'0 0.0 1010.3 28.1
2014-Dec-17 19:00S 15°04' E 087°30'1 0.3 1010.7 28.1
2014-Dec-17 16:00S 15°03' E 087°31'0 0.2 1012.3 28.2
2014-Dec-17 15:00S 15°03' E 087°31'0 0.0 1012.2 28.2
2014-Dec-17 14:00S 15°03' E 087°31'2 1.1 1011.4 28.2
2014-Dec-17 12:00S 15°02' E 087°33'1 0.6 1010.3 28.2
2014-Dec-17 11:00S 15°01' E 087°32'0 0.0 1009.9 28.2
2014-Dec-17 09:00S 15°01' E 087°32'0 0.0 1009.7 28.2
2014-Dec-17 08:00S 15°01' E 087°32'1 0.6 1010.2 28.3
2014-Dec-17 07:00S 15°01' E 087°33'1 0.2 1010.7 28.3
2014-Dec-17 03:00S 15°00' E 087°33'0 0.0 1012.4 28.2
2014-Dec-17 02:00S 15°00' E 087°33'1 0.4 1012.1 28.2
2014-Dec-17 00:00S 15°01' E 087°33'0 0.1 1011.0 28.2
2014-Dec-16 21:00S 15°01' E 087°33'1 0.3 1009.9 28.2
2014-Dec-16 19:00S 15°02' E 087°33'0 0.5 1010.9 28.3
2014-Dec-16 18:00S 15°02' E 087°33'6 0.3 1011.9 28.3
2014-Dec-15 20:00S 14°58' E 087°29'0 0.0 1011.7 28.4
2014-Dec-15 19:00S 14°58' E 087°29'0 0.0 1012.2 28.4
2014-Dec-15 18:00S 14°58' E 087°29'2 0.9 1013.0 28.4
2014-Dec-15 16:00S 14°57' E 087°31'0 0.0 1013.9 28.4
2014-Dec-15 15:00S 14°57' E 087°31'0 0.0 1013.6 28.4
2014-Dec-15 14:00S 14°57' E 087°31'0 0.0 1013.4 28.4
2014-Dec-15 12:00S 14°57' E 087°31'1 0.8 1012.3 28.4
2014-Dec-15 11:00S 14°56' E 087°31'1 0.3 1011.5 28.5
2014-Dec-15 09:00S 14°56' E 087°31'1 0.6 1011.5 28.5
2014-Dec-15 08:00S 14°57' E 087°31'1 0.2 1012.1 28.5
2014-Dec-15 04:00S 14°56' E 087°30'1 0.6 1014.2 28.5
2014-Dec-15 03:00S 14°56' E 087°31'1 0.6 1014.2 28.4
2014-Dec-15 02:00S 14°56' E 087°30'0 0.0 1013.9 28.4
2014-Dec-15 00:00S 14°56' E 087°30'1 0.7 1013.0 28.4
2014-Dec-14 22:00S 14°55' E 087°29'0 0.0 1012.1 28.5
2014-Dec-14 21:00S 14°55' E 087°29'0 0.0 1012.3 28.5
2014-Dec-14 20:00S 14°55' E 087°29'1 0.6 1012.6 28.5
2014-Dec-14 19:00S 14°55' E 087°29'0 0.0 1013.1 28.5
2014-Dec-14 18:00S 14°55' E 087°29'1 0.3 1013.7 28.5
2014-Dec-14 16:00S 14°54' E 087°29'1 0.6 1014.1 28.5
2014-Dec-14 15:00S 14°54' E 087°30'1 1.3 1013.9 28.5
2014-Dec-14 14:00S 14°53' E 087°29'0 0.0 1013.4 28.5
2014-Dec-14 11:00S 14°53' E 087°29'1 1.3 1011.6 28.6
2014-Dec-14 10:00S 14°52' E 087°28'1 0.6 1011.5 28.6
2014-Dec-14 09:00S 14°52' E 087°28'2 1.8 1011.6 28.6
2014-Dec-14 08:00S 14°50' E 087°28'0 0.0 1012.2 28.6
2014-Dec-14 07:00S 14°50' E 087°28'0 0.0 1012.8 28.6
2014-Dec-14 04:00S 14°50' E 087°28'2 0.5 1013.9 28.6
2014-Dec-14 00:00S 14°48' E 087°29'8 0.3 1013.0 28.6
2014-Dec-12 21:00S 14°40' E 087°30'2 1.1 1011.4 28.6
2014-Dec-12 19:00S 14°38' E 087°31'1 0.3 1012.0 28.6
2014-Dec-12 15:00S 14°39' E 087°32'4 0.5 1012.8 28.7
2014-Dec-12 07:00S 14°35' E 087°32'3 0.4 1011.8 28.7
2014-Dec-12 00:00S 14°33' E 087°33'0 0.0 1011.3 28.6
2014-Dec-11 23:00S 14°33' E 087°33'3 0.4 1010.9 28.6
2014-Dec-11 15:00S 14°30' E 087°35'1 0.1 1012.6 28.7
2014-Dec-11 10:00S 14°30' E 087°36'0 0.2 1009.7 28.8
2014-Dec-11 08:00S 14°30' E 087°36'1 1.1 1010.7 28.8
2014-Dec-11 07:00S 14°29' E 087°35'0 0.0 1011.3 28.8
2014-Dec-11 04:00S 14°29' E 087°35'2 0.5 1012.5 28.7
2014-Dec-11 00:00S 14°28' E 087°34'1 1.2 1011.7 28.7
2014-Dec-10 23:00S 14°27' E 087°35'1 0.8 1011.1 28.7
2014-Dec-10 22:00S 14°27' E 087°35'1 0.7 1010.8 28.7
2014-Dec-10 20:00S 14°25' E 087°36'1 0.2 1011.2 28.7
2014-Dec-10 15:00S 14°24' E 087°36'0 0.0 1012.8 28.7
2014-Dec-10 14:00S 14°24' E 087°36'1 0.5 1012.3 28.7
2014-Dec-10 12:00S 14°24' E 087°35'1 0.5 1010.9 28.8
2014-Dec-10 10:00S 14°25' E 087°35'0 0.1 1010.3 28.9
2014-Dec-10 09:00S 14°25' E 087°35'4 0.6 1010.7 28.9
2014-Dec-10 02:00S 14°21' E 087°32'1 0.8 1013.0 28.6
2014-Dec-10 01:00S 14°21' E 087°32'3 0.9 1012.8 28.6
2014-Dec-09 22:00S 14°18' E 087°33'0 0.1 1011.5 28.6
2014-Dec-09 20:00S 14°18' E 087°33'2 0.8 1012.1 28.7
2014-Dec-09 18:00S 14°17' E 087°33'0 0.0 1013.8 28.7
2014-Dec-09 16:00S 14°17' E 087°33'2 0.3 1013.7 28.7
2014-Dec-09 09:00S 14°15' E 087°34'1 0.7 1010.7 29.0
2014-Dec-09 07:00S 14°16' E 087°33'0 0.0 1011.8 29.0
2014-Dec-09 06:00S 14°16' E 087°33'2 0.6 1012.4 28.9
2014-Dec-09 02:00S 14°14' E 087°32'2 1.1 1012.6 28.7
2014-Dec-09 00:00S 14°11' E 087°31'   1011.6 28.7
Track history (hours):
 
Tides and Currents Weather Stations Pressure Air Temp Water Temp Dewpoint Dewpoint Depression Visibility Wind Speed Wind Dir Waves Ship Positions

Drifting buoy 53524

Last reported at 2014-Dec-18 22:00 UTC. Time now 2014-Dec-18 23:50 UTC.
Position S 15°11' E 087°32'.

Barometer 1011.7 mb
Water temperature 28.0 ° C

Date/timePositionNaut miles runAvg speedWind from/ knotsBaromVisibWave heightAir tempDewpointWater temp
2014-Dec-18 22:00S 15°11' E 087°32'0 0.0 1011.7 28.0
2014-Dec-18 21:00S 15°11' E 087°32'1 1.3 1011.7 28.1
2014-Dec-18 20:00S 15°10' E 087°32'1 0.1 1011.9 28.1
2014-Dec-18 15:00S 15°10' E 087°32'1 0.7 1013.0 28.1
2014-Dec-18 13:00S 15°09' E 087°32'0 0.0 1011.5 28.1
2014-Dec-18 12:00S 15°09' E 087°32'0 0.4 1010.8 28.1
2014-Dec-18 11:00S 15°08' E 087°33'0 0.0 1010.4 28.1
2014-Dec-18 10:00S 15°08' E 087°33'0 0.1 1010.0 28.1
2014-Dec-18 09:00S 15°09' E 087°33'1 0.5 1010.1 28.1
2014-Dec-18 07:00S 15°08' E 087°32'1 0.3 1010.8 28.1
2014-Dec-18 04:00S 15°07' E 087°32'0 0.1 1012.3 28.1
2014-Dec-18 00:00S 15°07' E 087°31'1 0.5 1011.2 28.1
2014-Dec-17 23:00S 15°06' E 087°32'1 0.7 1010.2 28.1
2014-Dec-17 21:00S 15°05' E 087°31'1 1.5 1009.9 28.1
2014-Dec-17 20:00S 15°04' E 087°30'0 0.0 1010.3 28.1
2014-Dec-17 19:00S 15°04' E 087°30'1 0.3 1010.7 28.1
2014-Dec-17 16:00S 15°03' E 087°31'0 0.2 1012.3 28.2
2014-Dec-17 15:00S 15°03' E 087°31'0 0.0 1012.2 28.2
2014-Dec-17 14:00S 15°03' E 087°31'2 1.1 1011.4 28.2
2014-Dec-17 12:00S 15°02' E 087°33'1 0.6 1010.3 28.2
2014-Dec-17 11:00S 15°01' E 087°32'0 0.0 1009.9 28.2
2014-Dec-17 09:00S 15°01' E 087°32'0 0.0 1009.7 28.2
2014-Dec-17 08:00S 15°01' E 087°32'1 0.6 1010.2 28.3
2014-Dec-17 07:00S 15°01' E 087°33'1 0.2 1010.7 28.3
2014-Dec-17 03:00S 15°00' E 087°33'0 0.0 1012.4 28.2
2014-Dec-17 02:00S 15°00' E 087°33'1 0.4 1012.1 28.2
2014-Dec-17 00:00S 15°01' E 087°33'0 0.1 1011.0 28.2
2014-Dec-16 21:00S 15°01' E 087°33'1 0.3 1009.9 28.2
2014-Dec-16 19:00S 15°02' E 087°33'0 0.5 1010.9 28.3
2014-Dec-16 18:00S 15°02' E 087°33'6 0.3 1011.9 28.3
2014-Dec-15 20:00S 14°58' E 087°29'0 0.0 1011.7 28.4
2014-Dec-15 19:00S 14°58' E 087°29'0 0.0 1012.2 28.4
2014-Dec-15 18:00S 14°58' E 087°29'2 0.9 1013.0 28.4
2014-Dec-15 16:00S 14°57' E 087°31'0 0.0 1013.9 28.4
2014-Dec-15 15:00S 14°57' E 087°31'0 0.0 1013.6 28.4
2014-Dec-15 14:00S 14°57' E 087°31'0 0.0 1013.4 28.4
2014-Dec-15 12:00S 14°57' E 087°31'1 0.8 1012.3 28.4
2014-Dec-15 11:00S 14°56' E 087°31'1 0.3 1011.5 28.5
2014-Dec-15 09:00S 14°56' E 087°31'1 0.6 1011.5 28.5
2014-Dec-15 08:00S 14°57' E 087°31'1 0.2 1012.1 28.5
2014-Dec-15 04:00S 14°56' E 087°30'1 0.6 1014.2 28.5
2014-Dec-15 03:00S 14°56' E 087°31'1 0.6 1014.2 28.4
2014-Dec-15 02:00S 14°56' E 087°30'0 0.0 1013.9 28.4
2014-Dec-15 00:00S 14°56' E 087°30'1 0.7 1013.0 28.4
2014-Dec-14 22:00S 14°55' E 087°29'0 0.0 1012.1 28.5
2014-Dec-14 21:00S 14°55' E 087°29'0 0.0 1012.3 28.5
2014-Dec-14 20:00S 14°55' E 087°29'1 0.6 1012.6 28.5
2014-Dec-14 19:00S 14°55' E 087°29'0 0.0 1013.1 28.5
2014-Dec-14 18:00S 14°55' E 087°29'1 0.3 1013.7 28.5
2014-Dec-14 16:00S 14°54' E 087°29'1 0.6 1014.1 28.5
2014-Dec-14 15:00S 14°54' E 087°30'1 1.3 1013.9 28.5
2014-Dec-14 14:00S 14°53' E 087°29'0 0.0 1013.4 28.5
2014-Dec-14 11:00S 14°53' E 087°29'1 1.3 1011.6 28.6
2014-Dec-14 10:00S 14°52' E 087°28'1 0.6 1011.5 28.6
2014-Dec-14 09:00S 14°52' E 087°28'2 1.8 1011.6 28.6
2014-Dec-14 08:00S 14°50' E 087°28'0 0.0 1012.2 28.6
2014-Dec-14 07:00S 14°50' E 087°28'0 0.0 1012.8 28.6
2014-Dec-14 04:00S 14°50' E 087°28'2 0.5 1013.9 28.6
2014-Dec-14 00:00S 14°48' E 087°29'8 0.3 1013.0 28.6
2014-Dec-12 21:00S 14°40' E 087°30'2 1.1 1011.4 28.6
2014-Dec-12 19:00S 14°38' E 087°31'1 0.3 1012.0 28.6
2014-Dec-12 15:00S 14°39' E 087°32'4 0.5 1012.8 28.7
2014-Dec-12 07:00S 14°35' E 087°32'3 0.4 1011.8 28.7
2014-Dec-12 00:00S 14°33' E 087°33'0 0.0 1011.3 28.6
2014-Dec-11 23:00S 14°33' E 087°33'3 0.4 1010.9 28.6
2014-Dec-11 15:00S 14°30' E 087°35'1 0.1 1012.6 28.7
2014-Dec-11 10:00S 14°30' E 087°36'0 0.2 1009.7 28.8
2014-Dec-11 08:00S 14°30' E 087°36'1 1.1 1010.7 28.8
2014-Dec-11 07:00S 14°29' E 087°35'0 0.0 1011.3 28.8
2014-Dec-11 04:00S 14°29' E 087°35'2 0.5 1012.5 28.7
2014-Dec-11 00:00S 14°28' E 087°34'1 1.2 1011.7 28.7
2014-Dec-10 23:00S 14°27' E 087°35'1 0.8 1011.1 28.7
2014-Dec-10 22:00S 14°27' E 087°35'1 0.7 1010.8 28.7
2014-Dec-10 20:00S 14°25' E 087°36'1 0.2 1011.2 28.7
2014-Dec-10 15:00S 14°24' E 087°36'0 0.0 1012.8 28.7
2014-Dec-10 14:00S 14°24' E 087°36'1 0.5 1012.3 28.7
2014-Dec-10 12:00S 14°24' E 087°35'1 0.5 1010.9 28.8
2014-Dec-10 10:00S 14°25' E 087°35'0 0.1 1010.3 28.9
2014-Dec-10 09:00S 14°25' E 087°35'4 0.6 1010.7 28.9
2014-Dec-10 02:00S 14°21' E 087°32'1 0.8 1013.0 28.6
2014-Dec-10 01:00S 14°21' E 087°32'3 0.9 1012.8 28.6
2014-Dec-09 22:00S 14°18' E 087°33'0 0.1 1011.5 28.6
2014-Dec-09 20:00S 14°18' E 087°33'2 0.8 1012.1 28.7
2014-Dec-09 18:00S 14°17' E 087°33'0 0.0 1013.8 28.7
2014-Dec-09 16:00S 14°17' E 087°33'2 0.3 1013.7 28.7
2014-Dec-09 09:00S 14°15' E 087°34'1 0.7 1010.7 29.0
2014-Dec-09 07:00S 14°16' E 087°33'0 0.0 1011.8 29.0
2014-Dec-09 06:00S 14°16' E 087°33'2 0.6 1012.4 28.9
2014-Dec-09 02:00S 14°14' E 087°32'2 1.1 1012.6 28.7
2014-Dec-09 00:00S 14°11' E 087°31'   1011.6 28.7

Dump ship's entire track history